createdAt,value
2022-08-25T00:01:19.005Z,95117.78
2022-08-25T00:04:29.530Z,95113.78
2022-08-25T00:07:38.101Z,95108.44
2022-08-25T00:11:03.264Z,95109.56
2022-08-25T00:14:17.056Z,95104.50
2022-08-25T00:17:27.596Z,95100.63
2022-08-25T00:20:35.986Z,95101.63
2022-08-25T00:23:48.905Z,95097.59
2022-08-25T00:27:01.728Z,95098.44
2022-08-25T00:30:14.631Z,95095.97
2022-08-25T00:33:27.632Z,95099.19
2022-08-25T00:36:36.988Z,95091.50
2022-08-25T00:39:45.212Z,95094.38
2022-08-25T00:42:56.018Z,95091.44
2022-08-25T00:46:04.305Z,95096.00
2022-08-25T00:49:24.843Z,95089.75
2022-08-25T00:52:39.618Z,95084.75
2022-08-25T00:55:48.986Z,95080.31
2022-08-25T00:58:58.262Z,95086.50
2022-08-25T01:02:10.249Z,95084.91
2022-08-25T01:05:24.053Z,95084.91
2022-08-25T01:08:34.303Z,95080.19
2022-08-25T01:11:45.486Z,95082.31
2022-08-25T01:14:56.091Z,95077.38
2022-08-25T01:18:05.032Z,95085.97
2022-08-25T01:21:16.516Z,95082.03
2022-08-25T01:24:38.619Z,95079.59
2022-08-25T01:27:46.853Z,95076.69
2022-08-25T01:30:55.175Z,95081.84
2022-08-25T01:34:06.157Z,95075.19
2022-08-25T01:37:19.208Z,95071.53
2022-08-25T01:40:27.747Z,95072.38
2022-08-25T01:43:39.888Z,95073.47
2022-08-25T01:46:48.209Z,95076.84
2022-08-25T01:49:56.441Z,95077.28
2022-08-25T01:53:15.405Z,95075.63
2022-08-25T01:56:23.600Z,95074.69
2022-08-25T01:59:31.789Z,95070.91
2022-08-25T02:02:42.906Z,95067.13
2022-08-25T02:05:53.413Z,95076.06
2022-08-25T02:09:08.853Z,95073.06
2022-08-25T02:12:17.216Z,95075.91
2022-08-25T02:15:25.707Z,95072.00
2022-08-25T02:18:34.012Z,95075.53
2022-08-25T02:21:42.934Z,95075.28
2022-08-25T02:24:52.768Z,95072.88
2022-08-25T02:28:01.889Z,95075.88
2022-08-25T02:31:10.289Z,95075.09
2022-08-25T02:34:18.544Z,95069.16
2022-08-25T02:37:26.744Z,95073.72
2022-08-25T02:40:36.397Z,95067.22
2022-08-25T02:43:45.962Z,95065.22
2022-08-25T02:46:54.306Z,95063.06
2022-08-25T02:50:02.491Z,95066.00
2022-08-25T02:53:10.629Z,95062.06
2022-08-25T02:56:21.404Z,95059.69
2022-08-25T02:59:29.908Z,95053.84
2022-08-25T03:02:38.101Z,95049.19
2022-08-25T03:05:46.405Z,95050.16
2022-08-25T03:08:55.382Z,95043.59
2022-08-25T03:12:05.970Z,95043.59
2022-08-25T03:15:17.160Z,95040.34
2022-08-25T03:18:25.321Z,95047.56
2022-08-25T03:21:33.999Z,95039.56
2022-08-25T03:24:42.162Z,95045.66
2022-08-25T03:27:51.636Z,95048.16
2022-08-25T03:31:00.544Z,95037.75
2022-08-25T03:34:09.223Z,95045.41
2022-08-25T03:37:17.361Z,95042.25
2022-08-25T03:44:03.974Z,95050.00
2022-08-25T03:47:14.934Z,95049.88
2022-08-25T03:50:24.627Z,95040.78
2022-08-25T03:53:32.768Z,95037.72
2022-08-25T03:56:41.573Z,95039.47
2022-08-25T03:59:51.764Z,95045.59
2022-08-25T04:02:59.938Z,95051.03
2022-08-25T04:06:09.381Z,95049.34
2022-08-25T04:09:17.496Z,95049.25
2022-08-25T04:12:26.572Z,95049.25
2022-08-25T04:15:36.852Z,95052.00
2022-08-25T04:18:45.813Z,95057.03
2022-08-25T04:21:56.727Z,95052.53
2022-08-25T04:25:08.115Z,95055.38
2022-08-25T04:28:16.268Z,95057.25
2022-08-25T04:31:26.057Z,95051.69
2022-08-25T04:34:34.296Z,95049.56
2022-08-25T04:37:42.661Z,95051.22
2022-08-25T04:40:58.547Z,95054.22
2022-08-25T04:44:07.193Z,95057.59
2022-08-25T04:47:16.888Z,95055.47
2022-08-25T04:50:25.529Z,95059.66
2022-08-25T04:53:34.483Z,95059.16
2022-08-25T04:56:43.983Z,95057.59
2022-08-25T04:59:52.264Z,95044.06
2022-08-25T05:03:01.774Z,95040.03
2022-08-25T05:06:15.267Z,95053.22
2022-08-25T05:09:25.257Z,95054.63
2022-08-25T05:12:34.261Z,95045.94
2022-08-25T05:15:52.913Z,95048.88
2022-08-25T05:19:02.372Z,95040.34
2022-08-25T05:22:10.549Z,95045.84
2022-08-25T05:25:19.087Z,95038.91
2022-08-25T05:28:27.241Z,95037.69
2022-08-25T05:31:41.379Z,95043.44
2022-08-25T05:34:52.888Z,95047.97
2022-08-25T05:38:01.061Z,95036.38
2022-08-25T05:41:12.988Z,95035.25
2022-08-25T05:44:21.670Z,95032.81
2022-08-25T05:47:30.307Z,95037.25
2022-08-25T05:50:39.944Z,95038.25
2022-08-25T05:53:52.076Z,95038.31
2022-08-25T05:57:01.132Z,95039.47
2022-08-25T06:00:11.398Z,95039.28
2022-08-25T06:03:22.444Z,95038.91
2022-08-25T06:06:33.439Z,95041.03
2022-08-25T06:09:45.997Z,95035.94
2022-08-25T06:12:54.761Z,95025.59
2022-08-25T06:16:05.435Z,95012.69
2022-08-25T06:19:13.946Z,95017.19
2022-08-25T06:22:25.610Z,95012.13
2022-08-25T06:25:33.865Z,95013.41
2022-08-25T06:28:42.432Z,95014.78
2022-08-25T06:31:50.981Z,95010.44
2022-08-25T06:34:59.742Z,95010.19
2022-08-25T06:38:10.173Z,95017.13
2022-08-25T06:41:18.497Z,95028.69
2022-08-25T06:44:27.523Z,95014.22
2022-08-25T06:47:35.765Z,95019.81
2022-08-25T06:50:46.121Z,95018.41
2022-08-25T06:53:55.710Z,95020.44
2022-08-25T06:57:05.999Z,95036.06
2022-08-25T07:00:14.946Z,95029.19
2022-08-25T07:06:37.841Z,95028.03
2022-08-25T07:09:47.568Z,95028.69
2022-08-25T07:12:57.013Z,95033.69
2022-08-25T07:16:06.684Z,95030.63
2022-08-25T07:19:16.358Z,95023.38
2022-08-25T07:22:25.788Z,95024.06
2022-08-25T07:25:36.372Z,95027.97
2022-08-25T07:28:47.470Z,95030.44
2022-08-25T07:31:56.444Z,95025.66
2022-08-25T07:35:18.932Z,95021.16
2022-08-25T07:38:27.516Z,95016.59
2022-08-25T07:41:41.975Z,95014.72
2022-08-25T07:44:51.029Z,95014.72
2022-08-25T07:48:00.873Z,95011.16
2022-08-25T07:51:11.172Z,95015.94
2022-08-25T07:54:19.536Z,95019.66
2022-08-25T07:57:29.652Z,95008.44
2022-08-25T08:00:39.588Z,95018.13
2022-08-25T08:03:51.815Z,95018.69
2022-08-25T08:06:59.942Z,95022.75
2022-08-25T08:10:42.172Z,95020.84
2022-08-25T08:13:42.195Z,95017.41
2022-08-25T08:16:50.555Z,95022.28
2022-08-25T08:19:58.766Z,95024.78
2022-08-25T08:23:07.373Z,95016.66
2022-08-25T08:26:15.780Z,95017.59
2022-08-25T08:29:25.715Z,95022.41
2022-08-25T08:33:05.911Z,95020.66
2022-08-25T08:36:07.359Z,95010.38
2022-08-25T08:39:15.594Z,95020.34
2022-08-25T08:42:47.002Z,95020.84
2022-08-25T08:45:57.045Z,95019.38
2022-08-25T08:49:23.013Z,95008.31
2022-08-25T08:52:46.021Z,95004.72
2022-08-25T08:56:02.390Z,95002.84
2022-08-25T08:59:19.314Z,94999.75
2022-08-25T09:02:51.685Z,95006.59
2022-08-25T09:06:06.893Z,94999.22
2022-08-25T09:09:26.018Z,94991.63
2022-08-25T09:12:48.143Z,94980.31
2022-08-25T09:16:31.923Z,94980.94
2022-08-25T09:20:18.642Z,94978.75
2022-08-25T09:23:47.534Z,94980.03
2022-08-25T09:27:11.959Z,94977.22
2022-08-25T09:30:25.055Z,94984.94
2022-08-25T09:33:36.059Z,94984.44
2022-08-25T09:36:48.466Z,94982.06
2022-08-25T09:39:57.758Z,94975.63
2022-08-25T09:43:22.026Z,94982.03
2022-08-25T09:46:31.500Z,94977.00
2022-08-25T09:49:43.995Z,94974.34
2022-08-25T09:52:53.933Z,94972.41
2022-08-25T09:56:07.609Z,94969.56
2022-08-25T09:59:35.260Z,94978.56
2022-08-25T10:02:46.957Z,94967.22
2022-08-25T10:06:07.978Z,94966.22
2022-08-25T10:09:34.825Z,94960.13
2022-08-25T10:12:51.083Z,94964.50
2022-08-25T10:16:20.324Z,94964.50
2022-08-25T10:19:32.450Z,94959.22
2022-08-25T10:22:43.192Z,94961.53
2022-08-25T10:25:57.905Z,94946.25
2022-08-25T10:29:32.486Z,94960.75
2022-08-25T10:33:09.918Z,94946.56
2022-08-25T10:36:24.420Z,94946.41
2022-08-25T10:39:42.123Z,94950.59
2022-08-25T10:43:07.899Z,94941.56
2022-08-25T10:46:31.519Z,94937.34
2022-08-25T10:49:50.095Z,94933.16
2022-08-25T10:53:28.212Z,94937.06
2022-08-25T10:56:41.704Z,94930.41
2022-08-25T11:00:05.558Z,94935.19
2022-08-25T11:03:35.355Z,94932.81
2022-08-25T11:06:54.780Z,94935.53
2022-08-25T11:10:11.651Z,94928.69
2022-08-25T11:13:30.153Z,94922.66
2022-08-25T11:16:46.180Z,94918.16
2022-08-25T11:20:06.279Z,94918.50
2022-08-25T11:23:24.128Z,94922.75
2022-08-25T11:26:40.622Z,94933.13
2022-08-25T11:30:01.790Z,94915.94
2022-08-25T11:33:15.025Z,94911.78
2022-08-25T11:36:31.495Z,94911.91
2022-08-25T11:40:11.778Z,94908.16
2022-08-25T11:43:51.355Z,94901.81
2022-08-25T11:47:29.789Z,94901.53
2022-08-25T11:51:01.801Z,94890.34
2022-08-25T11:54:38.768Z,94889.84
2022-08-25T11:57:53.731Z,94890.75
2022-08-25T12:01:04.841Z,94883.91
2022-08-25T12:04:16.299Z,94886.78
2022-08-25T12:08:13.309Z,94883.66
2022-08-25T12:11:51.293Z,94888.22
2022-08-25T12:15:21.066Z,94879.28
2022-08-25T12:18:50.481Z,94884.91
2022-08-25T12:22:39.387Z,94893.50
2022-08-25T12:25:54.932Z,94890.97
2022-08-25T12:29:16.693Z,94897.75
2022-08-25T12:32:50.104Z,94894.03
2022-08-25T12:36:02.712Z,94897.94
2022-08-25T12:39:25.042Z,94889.81
2022-08-25T12:42:39.723Z,94889.88
2022-08-25T12:45:53.228Z,94880.16
2022-08-25T12:49:06.320Z,94874.13
2022-08-25T12:52:21.932Z,94882.31
2022-08-25T12:55:39.433Z,94873.69
2022-08-25T12:59:00.317Z,94869.00
2022-08-25T13:02:58.677Z,94874.25
2022-08-25T13:06:31.555Z,94875.47
2022-08-25T13:10:24.310Z,94861.41
2022-08-25T13:13:50.638Z,94859.44
2022-08-25T13:17:01.963Z,94855.50
2022-08-25T13:20:20.612Z,94855.19
2022-08-25T13:23:38.163Z,94854.00
2022-08-25T13:26:56.885Z,94849.06
2022-08-25T13:30:08.168Z,94846.47
2022-08-25T13:33:23.738Z,94843.50
2022-08-25T13:37:04.439Z,94837.06
2022-08-25T13:40:25.863Z,94842.50
2022-08-25T13:43:36.388Z,94844.16
2022-08-25T13:46:46.935Z,94842.66
2022-08-25T13:49:57.676Z,94838.78
2022-08-25T13:53:15.772Z,94832.06
2022-08-25T13:56:39.856Z,94835.66
2022-08-25T13:59:54.472Z,94821.66
2022-08-25T14:03:12.675Z,94824.22
2022-08-25T14:06:26.130Z,94826.13
2022-08-25T14:09:46.815Z,94827.13
2022-08-25T14:13:12.708Z,94826.41
2022-08-25T14:16:25.732Z,94824.53
2022-08-25T14:19:35.500Z,94817.53
2022-08-25T14:22:46.586Z,94825.34
2022-08-25T14:25:59.002Z,94822.28
2022-08-25T14:29:08.180Z,94823.94
2022-08-25T14:32:19.124Z,94819.53
2022-08-25T14:35:27.383Z,94815.13
2022-08-25T14:38:38.876Z,94818.34
2022-08-25T14:41:53.162Z,94810.75
2022-08-25T14:45:02.478Z,94815.34
2022-08-25T14:48:16.425Z,94811.78
2022-08-25T14:51:26.044Z,94811.41
2022-08-25T14:54:37.614Z,94812.78
2022-08-25T14:57:47.932Z,94809.16
2022-08-25T15:00:58.113Z,94804.16
2022-08-25T15:04:12.659Z,94804.59
2022-08-25T15:07:42.474Z,94807.22
2022-08-25T15:10:51.146Z,94804.63
2022-08-25T15:14:01.685Z,94808.69
2022-08-25T15:17:10.996Z,94801.38
2022-08-25T15:20:20.105Z,94799.41
2022-08-25T15:23:28.254Z,94802.50
2022-08-25T15:26:45.028Z,94809.41
2022-08-25T15:29:55.820Z,94815.19
2022-08-25T15:33:05.069Z,94812.13
2022-08-25T15:36:16.312Z,94809.69
2022-08-25T15:39:29.317Z,94795.19
2022-08-25T15:42:38.613Z,94798.28
2022-08-25T15:45:52.474Z,94795.81
2022-08-25T15:49:01.198Z,94798.22
2022-08-25T15:52:10.000Z,94798.88
2022-08-25T15:55:22.666Z,94799.44
2022-08-25T15:58:33.456Z,94794.25
2022-08-25T16:01:44.252Z,94797.88
2022-08-25T16:04:54.651Z,94790.50
2022-08-25T16:08:03.704Z,94788.22
2022-08-25T16:11:20.038Z,94786.50
2022-08-25T16:14:30.653Z,94789.72
2022-08-25T16:17:43.177Z,94778.28
2022-08-25T16:20:53.575Z,94780.91
2022-08-25T16:24:07.601Z,94788.31
2022-08-25T16:27:19.062Z,94784.19
2022-08-25T16:30:27.381Z,94782.69
2022-08-25T16:33:38.110Z,94777.81
2022-08-25T16:36:46.847Z,94781.72
2022-08-25T16:39:56.419Z,94785.00
2022-08-25T16:43:04.739Z,94780.50
2022-08-25T16:46:17.247Z,94785.53
2022-08-25T16:49:26.897Z,94784.56
2022-08-25T16:52:52.988Z,94783.13
2022-08-25T16:56:08.557Z,94778.41
2022-08-25T16:59:19.567Z,94772.91
2022-08-25T17:02:28.230Z,94775.28
2022-08-25T17:05:44.507Z,94778.47
2022-08-25T17:08:53.321Z,94783.81
2022-08-25T17:12:01.456Z,94778.44
2022-08-25T17:15:10.494Z,94783.22
2022-08-25T17:18:18.884Z,94778.22
2022-08-25T17:21:35.376Z,94782.81
2022-08-25T17:24:50.206Z,94773.72
2022-08-25T17:28:08.263Z,94780.00
2022-08-25T17:31:22.119Z,94781.84
2022-08-25T17:34:31.045Z,94782.59
2022-08-25T17:37:41.007Z,94785.81
2022-08-25T17:40:49.458Z,94786.09
2022-08-25T17:43:58.695Z,94779.78
2022-08-25T17:47:07.107Z,94777.47
2022-08-25T17:50:16.044Z,94777.03
2022-08-25T17:53:26.883Z,94775.66
2022-08-25T17:56:35.219Z,94780.88
2022-08-25T17:59:44.124Z,94780.06
2022-08-25T18:02:52.408Z,94777.75
2022-08-25T18:06:01.042Z,94786.25
2022-08-25T18:09:13.293Z,94791.09
2022-08-25T18:12:21.609Z,94799.13
2022-08-25T18:15:36.464Z,94795.47
2022-08-25T18:18:45.360Z,94804.84
2022-08-25T18:21:53.555Z,94807.00
2022-08-25T18:25:08.657Z,94806.50
2022-08-25T18:28:18.807Z,94814.31
2022-08-25T18:31:27.185Z,94806.31
2022-08-25T18:34:36.402Z,94805.75
2022-08-25T18:38:02.500Z,94803.66
2022-08-25T18:41:13.516Z,94815.91
2022-08-25T18:44:23.381Z,94809.81
2022-08-25T18:47:31.775Z,94818.44
2022-08-25T18:50:42.687Z,94815.56
2022-08-25T18:53:58.998Z,94811.41
2022-08-25T18:57:09.208Z,94813.91
2022-08-25T19:00:21.410Z,94817.44
2022-08-25T19:03:29.784Z,94817.38
2022-08-25T19:06:38.480Z,94812.09
2022-08-25T19:09:52.204Z,94810.91
2022-08-25T19:13:08.289Z,94809.13
2022-08-25T19:16:30.934Z,94818.72
2022-08-25T19:19:39.665Z,94811.81
2022-08-25T19:22:48.492Z,94805.81
2022-08-25T19:25:57.044Z,94812.47
2022-08-25T19:29:12.675Z,94808.28
2022-08-25T19:32:21.844Z,94813.78
2022-08-25T19:35:43.897Z,94804.41
2022-08-25T19:38:53.794Z,94810.13
2022-08-25T19:42:03.186Z,94813.97
2022-08-25T19:45:14.343Z,94811.00
2022-08-25T19:48:22.727Z,94815.59
2022-08-25T19:51:32.638Z,94818.81
2022-08-25T19:54:45.666Z,94813.13
2022-08-25T19:57:54.591Z,94816.66
2022-08-25T20:01:04.768Z,94813.53
2022-08-25T20:04:13.599Z,94812.13
2022-08-25T20:07:25.763Z,94810.69
2022-08-25T20:10:42.147Z,94810.28
2022-08-25T20:13:50.516Z,94814.94
2022-08-25T20:17:00.663Z,94811.84
2022-08-25T20:20:12.918Z,94820.72
2022-08-25T20:23:38.858Z,94820.69
2022-08-25T20:26:47.756Z,94819.28
2022-08-25T20:29:57.262Z,94816.97
2022-08-25T20:33:07.599Z,94814.66
2022-08-25T20:36:17.787Z,94817.78
2022-08-25T20:39:27.522Z,94824.78
2022-08-25T20:42:37.174Z,94816.41
2022-08-25T20:45:46.075Z,94828.00
2022-08-25T20:48:55.944Z,94821.44
2022-08-25T20:52:05.507Z,94822.63
2022-08-25T20:55:19.138Z,94816.88
2022-08-25T20:58:27.864Z,94811.09
2022-08-25T21:01:39.908Z,94822.34
2022-08-25T21:04:50.402Z,94815.47
2022-08-25T21:07:59.076Z,94810.06
2022-08-25T21:11:08.711Z,94810.09
2022-08-25T21:14:17.445Z,94807.38
2022-08-25T21:17:26.504Z,94807.84
2022-08-25T21:20:36.219Z,94815.97
2022-08-25T21:23:48.186Z,94816.38
2022-08-25T21:26:59.591Z,94810.22
2022-08-25T21:30:10.812Z,94813.31
2022-08-25T21:33:19.352Z,94814.09
2022-08-25T21:36:31.337Z,94811.41
2022-08-25T21:39:39.705Z,94811.78
2022-08-25T21:42:50.361Z,94803.69
2022-08-25T21:45:58.976Z,94802.53
2022-08-25T21:49:08.607Z,94808.31
2022-08-25T21:52:18.760Z,94806.78
2022-08-25T21:55:27.069Z,94815.59
2022-08-25T21:58:38.368Z,94801.75
2022-08-25T22:01:47.281Z,94805.63
2022-08-25T22:04:57.743Z,94795.66
2022-08-25T22:08:08.867Z,94804.13
2022-08-25T22:11:18.481Z,94800.31
2022-08-25T22:14:28.515Z,94799.91
2022-08-25T22:17:37.037Z,94800.31
2022-08-25T22:20:45.739Z,94801.84
2022-08-25T22:23:57.594Z,94796.09
2022-08-25T22:27:15.362Z,94804.22
2022-08-25T22:30:24.253Z,94792.66
2022-08-25T22:33:33.638Z,94786.84
2022-08-25T22:36:42.040Z,94791.09
2022-08-25T22:39:52.593Z,94784.59
2022-08-25T22:43:00.993Z,94788.03
2022-08-25T22:46:12.872Z,94788.03
2022-08-25T22:49:21.878Z,94783.44
2022-08-25T22:52:33.672Z,94776.91
2022-08-25T22:55:45.454Z,94778.84
2022-08-25T22:58:54.617Z,94778.47
2022-08-25T23:02:03.160Z,94789.22
2022-08-25T23:05:14.784Z,94783.47
2022-08-25T23:08:39.362Z,94785.78
2022-08-25T23:11:51.485Z,94778.47
2022-08-25T23:15:00.046Z,94778.84
2022-08-25T23:18:08.724Z,94774.25
2022-08-25T23:21:38.212Z,94778.47
2022-08-25T23:24:52.552Z,94776.16
2022-08-25T23:28:02.480Z,94774.63
2022-08-25T23:31:13.647Z,94775.78
2022-08-25T23:34:24.642Z,94775.38
2022-08-25T23:37:34.471Z,94774.63
2022-08-25T23:40:44.611Z,94768.47
2022-08-25T23:43:55.416Z,94772.69
2022-08-25T23:47:03.702Z,94765.78
2022-08-25T23:50:12.696Z,94763.88
2022-08-25T23:53:21.559Z,94766.94
2022-08-25T23:56:29.731Z,94763.09
2022-08-25T23:59:39.751Z,94762.31
